Time;durP1;ratioP1;P1;durP2;ratioP2;P2;SDS_P1;SDS_P2;PMS_P1;PMS_P2;Temp;Humidity;BMP_temperature;BMP_pressure;BME280_temperature;BME280_humidity;BME280_pressure;Samples;Min_cycle;Max_cycle;Signal;HPM_P1;HPM_P2
2021/03/15 00:04:09;;;;;;;27.70;15.20;;;;;;;0.03;85.57;98996.14;253086;1105;115661;-63
2021/03/15 00:09:12;;;;;;;35.35;15.08;;;;;;;0.09;85.01;98995.41;253488;1105;114658;-63
2021/03/15 00:14:16;;;;;;;27.80;15.72;;;;;;;0.09;84.63;98992.79;253095;1105;115202;-63
2021/03/15 00:19:20;;;;;;;27.45;17.10;;;;;;;0.10;84.63;99004.89;251612;1105;114793;-63
2021/03/15 00:24:23;;;;;;;22.58;13.85;;;;;;;-0.01;84.34;98996.55;252648;1105;115056;-65
2021/03/15 00:29:27;;;;;;;30.25;15.95;;;;;;;-0.17;85.64;98998.55;253614;1104;115541;-63
2021/03/15 00:34:33;;;;;;;27.30;12.33;;;;;;;-0.21;84.22;98999.91;253748;1104;116045;-63
2021/03/15 00:39:39;;;;;;;23.50;14.45;;;;;;;-0.35;85.20;98991.91;254290;1105;115616;-63
2021/03/15 00:44:44;;;;;;;33.48;17.10;;;;;;;-0.36;85.84;98997.33;254384;1105;115971;-64
2021/03/15 00:49:48;;;;;;;36.60;16.50;;;;;;;-0.33;86.25;99002.20;254618;1104;115065;-63
2021/03/15 00:54:52;;;;;;;29.70;16.43;;;;;;;-0.30;85.24;99001.00;254386;1105;116556;-63
2021/03/15 00:59:56;;;;;;;32.28;18.40;;;;;;;-0.28;85.70;99004.25;254783;1104;115714;-63
2021/03/15 01:05:01;;;;;;;26.77;14.55;;;;;;;-0.26;84.30;98997.02;254918;1104;115674;-63
2021/03/15 01:10:11;;;;;;;31.48;16.12;;;;;;;-0.32;84.94;98990.73;253446;1105;114785;-63
2021/03/15 01:15:16;;;;;;;33.28;19.92;;;;;;;-0.34;85.43;98982.25;254057;1105;115452;-63
2021/03/15 01:20:21;;;;;;;30.70;14.75;;;;;;;-0.44;85.55;98990.38;253718;1104;115215;-63
2021/03/15 01:25:39;;;;;;;27.50;12.87;;;;;;;-0.57;86.47;98994.61;253092;1104;115636;-62
2021/03/15 01:30:45;;;;;;;25.60;15.45;;;;;;;-0.58;86.79;99000.84;252955;1105;115598;-63
2021/03/15 01:35:50;;;;;;;34.65;15.13;;;;;;;-0.61;87.33;99007.25;252731;1105;115935;-62
2021/03/15 01:40:54;;;;;;;30.55;18.70;;;;;;;-0.55;86.79;98998.68;252582;1105;115668;-63
2021/03/15 01:45:57;;;;;;;29.37;15.85;;;;;;;-0.52;86.46;98987.84;253817;1104;114870;-64
2021/03/15 01:51:00;;;;;;;33.38;17.02;;;;;;;-0.51;86.76;98979.00;252107;1105;115993;-63
2021/03/15 01:56:06;;;;;;;33.00;16.00;;;;;;;-0.50;85.89;98991.09;252554;1105;115899;-64
2021/03/15 02:01:10;;;;;;;24.98;12.90;;;;;;;-0.45;86.38;98980.89;253216;1105;115159;-63
2021/03/15 02:06:13;;;;;;;26.77;13.45;;;;;;;-0.45;86.43;98991.37;252461;1105;114929;-62
2021/03/15 02:11:37;;;;;;;22.00;14.13;;;;;;;-0.43;87.22;98992.00;253089;1105;114759;-62
2021/03/15 02:17:23;;;;;;;17.57;10.87;;;;;;;-0.48;87.55;98983.06;253143;1105;136290;-62
2021/03/15 02:22:33;;;;;;;23.50;13.00;;;;;;;-0.43;88.55;98983.34;253740;1105;115699;-63
2021/03/15 02:28:19;;;;;;;19.07;12.03;;;;;;;-0.26;87.86;98983.92;253087;1104;115176;-62
2021/03/15 02:33:56;;;;;;;19.27;10.82;;;;;;;-0.14;88.23;98972.80;254258;1104;115402;-63
2021/03/15 02:39:03;;;;;;;17.87;12.05;;;;;;;0.00;87.66;98979.80;254285;1104;115847;-63
2021/03/15 02:44:10;;;;;;;10.90;9.05;;;;;;;0.11;87.74;98985.55;253618;1105;115353;-63
2021/03/15 02:49:17;;;;;;;18.42;10.45;;;;;;;0.14;88.37;98988.63;254521;1104;114735;-62
2021/03/15 02:54:22;;;;;;;18.37;10.28;;;;;;;0.26;88.18;98995.00;254932;1105;114935;-63
2021/03/15 02:59:28;;;;;;;18.35;9.18;;;;;;;0.41;87.53;98991.49;254497;1104;115144;-63
2021/03/15 03:04:32;;;;;;;16.27;9.38;;;;;;;0.41;87.17;98986.25;254000;1105;114910;-63
2021/03/15 03:09:38;;;;;;;18.42;9.58;;;;;;;0.43;87.24;98986.87;254057;1105;115217;-63
2021/03/15 03:14:43;;;;;;;15.45;10.20;;;;;;;0.53;87.57;98982.14;254758;1104;114946;-64
2021/03/15 03:19:49;;;;;;;12.63;7.78;;;;;;;0.55;88.00;98985.38;253344;1104;115188;-63
2021/03/15 03:24:54;;;;;;;19.00;9.08;;;;;;;0.58;87.74;98988.45;253800;1104;115173;-63
2021/03/15 03:30:00;;;;;;;15.60;10.38;;;;;;;0.59;88.09;98989.26;254001;1104;114926;-63
2021/03/15 03:35:06;;;;;;;12.05;8.00;;;;;;;0.68;87.56;98995.97;253320;1105;114658;-63
2021/03/15 03:40:10;;;;;;;20.88;9.83;;;;;;;0.67;87.29;98994.34;252743;1105;115818;-62
2021/03/15 03:45:14;;;;;;;20.48;10.85;;;;;;;0.67;86.50;98999.59;251723;1104;115144;-62
2021/03/15 03:50:23;;;;;;;20.70;12.10;;;;;;;0.70;87.08;98988.72;252393;1104;114656;-62
2021/03/15 03:55:41;;;;;;;19.05;10.13;;;;;;;0.74;86.76;98999.66;252557;1105;115603;-63
2021/03/15 04:00:47;;;;;;;13.13;8.90;;;;;;;0.64;87.38;98989.47;251557;1105;117545;-61
2021/03/15 04:05:58;;;;;;;17.97;10.27;;;;;;;0.55;86.28;98993.25;253415;1105;118246;-62
2021/03/15 04:11:02;;;;;;;13.83;10.00;;;;;;;0.62;87.78;99001.97;251605;1105;115653;-62
2021/03/15 04:16:10;;;;;;;14.93;9.68;;;;;;;0.65;87.76;98999.78;252503;1105;115448;-62
2021/03/15 04:21:19;;;;;;;15.48;8.63;;;;;;;0.65;88.01;99010.27;253361;1105;115493;-62
2021/03/15 04:26:25;;;;;;;14.90;10.63;;;;;;;0.75;87.51;99001.28;252429;1104;116676;-62
2021/03/15 04:31:30;;;;;;;18.92;9.80;;;;;;;0.84;88.04;99008.83;252635;1105;116962;-62
2021/03/15 04:36:34;;;;;;;16.62;9.00;;;;;;;0.92;88.15;99007.86;252956;1105;117707;-62
2021/03/15 04:41:42;;;;;;;21.90;12.37;;;;;;;1.00;87.98;99005.91;254103;1105;115416;-62
2021/03/15 04:46:46;;;;;;;15.70;8.48;;;;;;;1.07;87.28;99005.16;253378;1104;116849;-62
2021/03/15 04:51:51;;;;;;;14.00;8.00;;;;;;;1.10;86.87;99017.90;253093;1105;116427;-63
2021/03/15 04:56:56;;;;;;;21.10;10.83;;;;;;;1.13;86.58;99025.39;254481;1104;115908;-64
2021/03/15 05:02:01;;;;;;;14.87;9.33;;;;;;;1.18;86.83;99036.14;254826;1104;116157;-64
2021/03/15 05:07:08;;;;;;;16.85;8.90;;;;;;;1.20;86.66;99027.07;254780;1105;114784;-63
2021/03/15 05:12:27;;;;;;;20.88;9.63;;;;;;;1.23;87.41;99036.34;254785;1105;115278;-64
2021/03/15 05:17:31;;;;;;;16.87;11.00;;;;;;;1.31;86.87;99033.58;254597;1104;115370;-63
2021/03/15 05:22:36;;;;;;;14.97;8.53;;;;;;;1.36;87.69;99039.07;254247;1105;114754;-63
2021/03/15 05:27:43;;;;;;;21.57;14.58;;;;;;;1.34;86.38;99038.45;252186;1104;115305;-62
2021/03/15 05:32:51;;;;;;;17.27;8.53;;;;;;;1.28;86.48;99047.09;253318;1104;115290;-63
2021/03/15 05:37:56;;;;;;;20.23;11.45;;;;;;;1.42;87.41;99046.19;253650;1104;115110;-64
2021/03/15 05:43:18;;;;;;;21.73;11.68;;;;;;;1.51;87.18;99050.29;252096;1105;116476;-62
2021/03/15 05:48:51;;;;;;;17.73;11.80;;;;;;;1.58;87.09;99060.81;254032;1105;118116;-63
2021/03/15 05:54:01;;;;;;;19.57;13.10;;;;;;;1.68;87.01;99054.22;253425;1105;115497;-63
2021/03/15 05:59:23;;;;;;;23.67;12.78;;;;;;;1.78;86.03;99060.94;253784;1105;115202;-65
2021/03/15 06:04:46;;;;;;;27.17;22.48;;;;;;;1.76;85.09;99061.13;252861;1104;115076;-64
2021/03/15 06:10:05;;;;;;;24.55;13.48;;;;;;;1.74;85.98;99064.95;253303;1105;115609;-63
2021/03/15 06:15:10;;;;;;;30.75;14.93;;;;;;;1.81;85.65;99071.06;253581;1105;114881;-63
2021/03/15 06:20:15;;;;;;;23.07;12.80;;;;;;;1.86;85.71;99074.70;252332;1105;115307;-62
2021/03/15 06:25:19;;;;;;;21.00;13.22;;;;;;;1.87;85.50;99070.27;252765;1105;114813;-63
2021/03/15 06:30:25;;;;;;;20.70;12.65;;;;;;;1.86;85.22;99066.83;253832;1104;115210;-66
2021/03/15 06:35:37;;;;;;;24.18;13.53;;;;;;;1.94;85.60;99066.67;253907;1104;116625;-64
2021/03/15 06:40:41;;;;;;;24.90;15.58;;;;;;;2.06;85.83;99072.19;254518;1104;115354;-64
2021/03/15 06:45:50;;;;;;;25.75;14.47;;;;;;;2.12;85.21;99067.97;254649;1104;115385;-62
2021/03/15 06:50:55;;;;;;;24.52;15.18;;;;;;;2.18;84.60;99067.16;254484;1105;115191;-63
2021/03/15 06:55:57;;;;;;;24.95;15.20;;;;;;;2.21;83.84;99070.21;254287;1105;114858;-62
2021/03/15 07:01:18;;;;;;;17.32;10.13;;;;;;;2.21;84.49;99062.32;254161;1104;115745;-63
2021/03/15 07:06:35;;;;;;;23.80;14.13;;;;;;;2.34;84.36;99067.63;254749;1105;116351;-64
2021/03/15 07:11:38;;;;;;;20.55;13.85;;;;;;;2.40;84.24;99070.48;254546;1105;115734;-63
2021/03/15 07:16:56;;;;;;;16.97;12.18;;;;;;;2.58;84.16;99075.98;254691;1104;115902;-65
2021/03/15 07:22:17;;;;;;;19.48;11.63;;;;;;;2.79;83.87;99077.63;254847;1104;115711;-67
2021/03/15 07:27:28;;;;;;;23.77;15.23;;;;;;;2.90;82.89;99077.05;254783;1104;115128;-63
2021/03/15 07:32:39;;;;;;;20.35;13.08;;;;;;;2.97;82.33;99072.60;254252;1105;114989;-63
2021/03/15 07:37:43;;;;;;;20.03;11.47;;;;;;;3.01;82.24;99068.56;254584;1105;115648;-63
2021/03/15 07:43:04;;;;;;;15.45;11.15;;;;;;;3.14;82.38;99073.81;254675;1105;115504;-64
2021/03/15 07:48:19;;;;;;;24.45;13.08;;;;;;;3.24;81.62;99073.41;254801;1105;115579;-64
2021/03/15 07:53:46;;;;;;;23.60;14.50;;;;;;;3.33;81.39;99083.55;252964;1105;115637;-63
2021/03/15 07:58:49;;;;;;;17.40;11.00;;;;;;;3.51;81.25;99080.27;251682;1105;116020;-66
2021/03/15 08:03:53;;;;;;;13.18;10.18;;;;;;;3.65;81.19;99086.34;252770;1105;115082;-63
2021/03/15 08:08:56;;;;;;;13.48;9.35;;;;;;;3.76;80.65;99082.25;253027;1105;116585;-64
2021/03/15 08:14:01;;;;;;;20.02;14.35;;;;;;;3.90;80.21;99083.84;251297;1105;115899;-64
2021/03/15 08:19:05;;;;;;;15.32;10.85;;;;;;;4.18;79.66;99086.17;252625;1105;116891;-63
2021/03/15 08:24:13;;;;;;;18.87;11.28;;;;;;;4.28;78.56;99079.41;251309;1105;115796;-64
2021/03/15 08:29:17;;;;;;;18.62;10.90;;;;;;;4.40;77.89;99082.21;254397;1104;116485;-67
2021/03/15 08:34:23;;;;;;;15.28;10.30;;;;;;;4.62;78.51;99087.97;254168;1105;116842;-68
2021/03/15 08:39:26;;;;;;;20.10;12.33;;;;;;;4.84;76.63;99091.92;253785;1104;118169;-66
2021/03/15 08:44:40;;;;;;;23.05;12.03;;;;;;;5.05;75.14;99094.20;252349;1105;116161;-67
2021/03/15 08:49:42;;;;;;;19.05;12.28;;;;;;;5.23;75.07;99084.70;253724;1105;116607;-67
2021/03/15 08:54:46;;;;;;;19.95;11.10;;;;;;;5.34;74.02;99086.66;252073;1105;116373;-67
2021/03/15 08:59:49;;;;;;;19.02;12.05;;;;;;;5.25;74.12;99087.94;253357;1105;115792;-66
2021/03/15 09:04:53;;;;;;;23.18;14.03;;;;;;;5.39;74.36;99090.27;253126;1105;116281;-63
2021/03/15 09:10:18;;;;;;;14.00;11.48;;;;;;;5.49;72.94;99083.69;254658;1104;117272;-64
2021/03/15 09:15:36;;;;;;;16.52;9.48;;;;;;;5.59;73.78;99071.58;254378;1105;118965;-64
2021/03/15 09:20:38;;;;;;;17.37;13.13;;;;;;;5.85;72.73;99067.84;254876;1104;116303;-64
2021/03/15 09:25:41;;;;;;;19.87;11.57;;;;;;;6.04;72.31;99066.05;254605;1105;116279;-64
2021/03/15 09:30:45;;;;;;;17.70;11.45;;;;;;;6.12;71.70;99065.73;254678;1105;115847;-64
2021/03/15 09:35:49;;;;;;;14.78;9.93;;;;;;;6.20;70.92;99060.14;254804;1104;116340;-66
2021/03/15 09:40:53;;;;;;;13.08;10.65;;;;;;;6.25;71.00;99062.13;254117;1105;115474;-66
2021/03/15 09:46:07;;;;;;;23.25;14.25;;;;;;;6.41;71.17;99069.46;254521;1105;117205;-66
2021/03/15 09:51:13;;;;;;;14.93;9.93;;;;;;;6.48;69.60;99072.00;253816;1105;115923;-69
2021/03/15 09:56:23;;;;;;;17.60;9.78;;;;;;;6.43;70.35;99065.53;250871;1105;116977;-69
2021/03/15 10:01:28;;;;;;;15.88;11.95;;;;;;;6.79;69.75;99063.81;251715;1105;118211;-68
2021/03/15 10:06:33;;;;;;;20.97;13.13;;;;;;;7.06;68.14;99057.07;251518;1104;116479;-69
2021/03/15 10:11:44;;;;;;;13.28;9.90;;;;;;;7.16;67.43;99050.41;252484;1105;117409;-69
2021/03/15 10:17:03;;;;;;;10.08;7.40;;;;;;;7.36;66.78;99045.56;251303;1105;117653;-70
2021/03/15 10:22:16;;;;;;;22.30;12.27;;;;;;;7.52;67.13;99047.55;251961;1105;115434;-68
2021/03/15 10:27:26;;;;;;;15.95;10.00;;;;;;;7.62;65.76;99041.66;253150;1105;117805;-66
2021/03/15 10:32:31;;;;;;;15.05;11.30;;;;;;;7.61;65.67;99042.70;252404;1105;116375;-69
2021/03/15 10:37:38;;;;;;;17.48;9.30;;;;;;;7.75;66.61;99036.90;250884;1105;118950;-68
2021/03/15 10:42:43;;;;;;;19.87;14.75;;;;;;;7.87;65.32;99047.50;250989;1105;118523;-68
2021/03/15 10:47:47;;;;;;;12.95;9.23;;;;;;;7.99;64.53;99039.50;251140;1105;115969;-69
2021/03/15 10:52:51;;;;;;;13.68;9.88;;;;;;;7.95;63.52;99035.72;251218;1105;117057;-70
2021/03/15 10:58:07;;;;;;;13.60;10.85;;;;;;;8.32;63.04;99018.41;251115;1105;116065;-71
2021/03/15 11:03:24;;;;;;;17.12;11.57;;;;;;;8.41;63.05;99024.16;253154;1105;116097;-70
2021/03/15 11:08:27;;;;;;;14.85;8.15;;;;;;;8.58;61.58;99021.52;251895;1104;115984;-69
2021/03/15 11:13:44;;;;;;;9.80;6.58;;;;;;;8.63;61.69;99014.45;254828;1105;137938;-67
2021/03/15 11:19:05;;;;;;;11.28;8.33;;;;;;;8.40;61.44;99022.55;251257;1105;115914;-70
2021/03/15 11:24:10;;;;;;;10.58;8.48;;;;;;;8.65;61.23;99008.91;251292;1105;116304;-69
2021/03/15 11:29:15;;;;;;;9.75;6.87;;;;;;;9.02;61.74;99004.73;254155;1104;116511;-69
2021/03/15 11:34:23;;;;;;;10.32;7.65;;;;;;;9.17;59.70;98996.20;254005;1105;114602;-68
2021/03/15 11:39:28;;;;;;;11.45;7.17;;;;;;;8.95;59.93;98997.97;254604;1105;115142;-68
2021/03/15 11:44:31;;;;;;;11.20;8.60;;;;;;;8.66;58.80;98997.23;254538;1104;115459;-68
2021/03/15 11:49:34;;;;;;;7.67;6.87;;;;;;;8.36;59.48;98989.53;254804;1105;115836;-67
2021/03/15 11:54:38;;;;;;;9.43;6.67;;;;;;;8.21;60.82;98987.39;254784;1104;115341;-69
2021/03/15 11:59:40;;;;;;;11.70;7.92;;;;;;;8.22;61.18;98985.55;253167;1105;116349;-69
2021/03/15 12:04:43;;;;;;;12.63;8.05;;;;;;;8.16;62.22;98989.14;250801;1105;117591;-68
2021/03/15 12:09:46;;;;;;;12.73;8.30;;;;;;;8.14;62.96;98983.27;251315;1105;116924;-67
2021/03/15 12:14:50;;;;;;;11.90;7.67;;;;;;;8.01;62.44;98987.80;253772;1105;117365;-67
2021/03/15 12:19:52;;;;;;;11.35;8.83;;;;;;;7.85;62.33;98993.86;253771;1104;116541;-68
2021/03/15 12:24:56;;;;;;;16.35;9.05;;;;;;;7.74;60.96;98981.42;251951;1104;117428;-69
2021/03/15 12:29:59;;;;;;;17.12;9.38;;;;;;;7.69;63.24;98981.31;250863;1105;116799;-69
2021/03/15 12:35:04;;;;;;;12.37;9.13;;;;;;;7.66;63.80;98979.92;250937;1104;116315;-70
2021/03/15 12:40:07;;;;;;;17.05;10.70;;;;;;;7.72;63.49;98981.66;252492;1105;117465;-68
2021/03/15 12:45:10;;;;;;;19.50;14.25;;;;;;;7.70;64.17;98978.42;250493;1105;116479;-69
2021/03/15 12:50:13;;;;;;;14.95;12.07;;;;;;;7.71;63.35;98977.38;251106;1105;117049;-65
2021/03/15 12:55:17;;;;;;;9.15;7.87;;;;;;;7.60;64.03;98980.89;251254;1105;116101;-65
2021/03/15 13:00:21;;;;;;;19.98;12.07;;;;;;;7.46;63.80;98974.21;251006;1105;116102;-67
2021/03/15 13:05:24;;;;;;;10.40;9.30;;;;;;;7.26;64.56;98979.08;250844;1105;115777;-64
2021/03/15 13:10:27;;;;;;;14.13;11.97;;;;;;;7.15;65.53;98979.88;250557;1105;115387;-65
2021/03/15 13:15:30;;;;;;;21.07;13.70;;;;;;;7.22;65.42;98969.98;254656;1105;117420;-66
2021/03/15 13:20:34;;;;;;;19.10;12.55;;;;;;;7.41;63.29;98979.40;252317;1105;116298;-66
2021/03/15 13:25:38;;;;;;;14.78;9.93;;;;;;;7.36;63.33;98984.59;251087;1105;116797;-66
2021/03/15 13:30:41;;;;;;;7.43;6.73;;;;;;;7.35;63.07;98977.67;251242;1105;116662;-65
2021/03/15 13:35:45;;;;;;;11.33;9.03;;;;;;;7.16;63.17;98981.50;250925;1105;116728;-65
2021/03/15 13:40:48;;;;;;;14.93;10.95;;;;;;;7.01;64.53;98982.78;254759;1105;117518;-62
2021/03/15 13:45:52;;;;;;;13.70;9.95;;;;;;;6.95;64.34;98978.39;254761;1104;116759;-63
2021/03/15 13:50:55;;;;;;;15.10;10.25;;;;;;;6.94;64.52;98968.02;254732;1105;116353;-67
2021/03/15 13:55:59;;;;;;;6.67;5.90;;;;;;;6.98;66.06;98967.34;254131;1105;117158;-66
2021/03/15 14:01:02;;;;;;;11.73;9.15;;;;;;;7.09;64.62;98963.86;254403;1104;115418;-66
2021/03/15 14:06:05;;;;;;;8.65;4.35;;;;;;;7.35;62.69;98967.06;252739;1105;115908;-66
2021/03/15 14:11:09;;;;;;;12.10;8.93;;;;;;;7.84;59.42;98956.95;250944;1105;115151;-66
2021/03/15 14:16:12;;;;;;;16.02;10.88;;;;;;;8.28;61.31;98969.45;251950;1105;115760;-66
2021/03/15 14:21:15;;;;;;;9.27;7.93;;;;;;;8.43;58.30;98964.45;250638;1105;115518;-68
2021/03/15 14:26:19;;;;;;;7.22;6.40;;;;;;;8.51;57.40;98971.23;250621;1105;115273;-68
2021/03/15 14:31:22;;;;;;;8.33;5.75;;;;;;;8.55;56.87;98972.36;250735;1105;114965;-69
2021/03/15 14:36:26;;;;;;;5.87;3.85;;;;;;;8.41;55.26;98966.53;250784;1105;114980;-69
2021/03/15 14:41:30;;;;;;;5.33;4.40;;;;;;;8.21;55.44;98960.84;251067;1105;114648;-65
2021/03/15 14:46:37;;;;;;;6.42;5.42;;;;;;;7.97;55.12;98959.30;250717;1105;114560;-66
2021/03/15 14:51:42;;;;;;;9.40;4.97;;;;;;;7.95;54.38;98962.20;251264;1105;115548;-66
2021/03/15 14:56:44;;;;;;;7.58;5.08;;;;;;;7.78;55.11;98959.50;251484;1105;115259;-68
2021/03/15 15:01:47;;;;;;;4.65;4.25;;;;;;;7.61;55.34;98955.98;250900;1105;114299;-67
2021/03/15 15:06:55;;;;;;;8.18;5.50;;;;;;;7.56;55.14;98955.88;251055;1105;115208;-67
2021/03/15 15:12:01;;;;;;;4.62;3.87;;;;;;;7.40;57.95;98953.92;252333;1105;115148;-67
2021/03/15 15:17:05;;;;;;;6.90;5.08;;;;;;;7.33;57.21;98946.12;254482;1105;115300;-66
2021/03/15 15:22:08;;;;;;;6.17;4.70;;;;;;;7.26;54.80;98937.48;254808;1104;115994;-68
2021/03/15 15:27:11;;;;;;;7.53;5.37;;;;;;;7.21;54.56;98947.16;254063;1105;115087;-65
2021/03/15 15:32:14;;;;;;;4.85;3.37;;;;;;;7.17;54.18;98943.35;254671;1104;114863;-65
2021/03/15 15:37:19;;;;;;;8.60;3.98;;;;;;;7.10;54.27;98960.17;254643;1105;115680;-66
2021/03/15 15:42:24;;;;;;;6.28;4.62;;;;;;;6.94;55.11;98963.53;254809;1105;114977;-65
2021/03/15 15:47:27;;;;;;;6.45;5.85;;;;;;;6.88;55.93;98958.34;254597;1104;115290;-67
2021/03/15 15:52:30;;;;;;;6.20;4.90;;;;;;;6.85;56.84;98970.19;253852;1105;115276;-66
2021/03/15 15:57:34;;;;;;;7.55;4.50;;;;;;;6.76;58.74;98968.91;254743;1105;114561;-65
2021/03/15 16:02:37;;;;;;;5.65;5.03;;;;;;;6.65;59.08;98969.72;254689;1105;115030;-64
2021/03/15 16:07:40;;;;;;;5.40;4.30;;;;;;;6.54;60.08;98973.14;254953;1104;115381;-64
2021/03/15 16:12:45;;;;;;;16.57;5.50;;;;;;;6.45;61.68;98979.78;254997;1104;116074;-65
2021/03/15 16:17:49;;;;;;;4.80;4.30;;;;;;;6.30;61.77;98991.61;254939;1105;117294;-64
2021/03/15 16:22:52;;;;;;;5.65;4.83;;;;;;;6.11;63.03;98976.02;254861;1104;115944;-67
2021/03/15 16:27:55;;;;;;;5.37;4.28;;;;;;;5.90;64.83;98982.57;254286;1105;117366;-66
2021/03/15 16:32:59;;;;;;;8.13;4.62;;;;;;;5.66;64.92;98977.13;253035;1104;116742;-68
2021/03/15 16:38:03;;;;;;;7.00;4.37;;;;;;;5.49;66.78;98981.41;254552;1105;117042;-67
2021/03/15 16:43:05;;;;;;;5.60;4.22;;;;;;;5.37;68.95;98981.31;254613;1105;116533;-66
2021/03/15 16:48:10;;;;;;;11.07;5.87;;;;;;;5.20;67.14;98990.05;253958;1104;116932;-66
2021/03/15 16:53:13;;;;;;;7.30;5.10;;;;;;;4.88;67.78;98986.67;252889;1105;117034;-67
2021/03/15 16:58:16;;;;;;;9.95;5.37;;;;;;;4.58;69.69;98999.70;252586;1105;118728;-67
2021/03/15 17:03:19;;;;;;;9.77;5.33;;;;;;;4.35;70.14;98993.13;251388;1105;115681;-67
2021/03/15 17:08:24;;;;;;;7.75;4.75;;;;;;;4.14;71.41;98996.10;251003;1105;114758;-68
2021/03/15 17:13:28;;;;;;;6.58;5.55;;;;;;;3.82;71.22;98994.42;251751;1105;115731;-65
2021/03/15 17:18:31;;;;;;;8.43;5.10;;;;;;;3.60;71.54;98999.18;252274;1105;115648;-67
2021/03/15 17:23:37;;;;;;;9.68;6.22;;;;;;;3.40;72.77;98999.21;252235;1105;115044;-65
2021/03/15 17:28:40;;;;;;;6.30;4.75;;;;;;;3.20;72.19;98999.26;255020;1104;116352;-64
2021/03/15 17:33:44;;;;;;;9.83;6.80;;;;;;;2.97;74.06;98999.70;254953;1105;116298;-65
2021/03/15 17:38:51;;;;;;;16.52;8.48;;;;;;;2.77;74.51;98996.23;254845;1105;116771;-64
2021/03/15 17:43:54;;;;;;;19.73;12.05;;;;;;;2.62;74.07;98999.09;254667;1104;120865;-64
2021/03/15 17:48:58;;;;;;;28.27;15.30;;;;;;;2.40;75.94;99008.17;252537;1105;116310;-68
2021/03/15 17:54:01;;;;;;;37.90;18.82;;;;;;;2.28;75.70;99018.45;254386;1102;115950;-65
2021/03/15 17:59:06;;;;;;;26.82;12.05;;;;;;;2.15;76.48;99015.78;254883;1104;117493;-65
2021/03/15 18:04:09;;;;;;;21.62;12.45;;;;;;;2.01;77.24;99011.50;254368;1105;115643;-63
2021/03/15 18:09:13;;;;;;;11.55;8.68;;;;;;;1.80;76.51;99019.52;254147;1105;114991;-68
2021/03/15 18:14:17;;;;;;;18.30;11.00;;;;;;;1.67;77.72;99033.39;253962;1105;115101;-66
2021/03/15 18:19:19;;;;;;;28.90;14.47;;;;;;;1.56;78.61;99024.23;254503;1105;116207;-69
2021/03/15 18:24:23;;;;;;;18.55;11.85;;;;;;;1.40;78.25;99015.87;254365;1104;118133;-64
2021/03/15 18:29:26;;;;;;;27.58;13.30;;;;;;;1.19;79.07;99020.20;254786;1104;117289;-64
2021/03/15 18:34:30;;;;;;;35.48;18.07;;;;;;;1.06;80.57;99024.52;254681;1105;116094;-64
2021/03/15 18:39:34;;;;;;;48.45;25.70;;;;;;;0.92;80.71;99027.03;253626;1104;117869;-62
2021/03/15 18:44:37;;;;;;;65.50;31.30;;;;;;;0.90;80.27;99026.45;252631;1105;116973;-65
2021/03/15 18:49:41;;;;;;;65.10;30.57;;;;;;;0.92;80.59;99032.28;254347;1105;116989;-65
2021/03/15 18:54:44;;;;;;;63.63;32.30;;;;;;;0.99;81.51;99027.91;251675;1105;115715;-66
2021/03/15 18:59:47;;;;;;;41.58;19.40;;;;;;;0.99;81.82;99030.53;253594;1103;116331;-65
2021/03/15 19:04:51;;;;;;;71.97;34.65;;;;;;;1.01;82.37;99033.78;254016;1105;116082;-65
2021/03/15 19:09:54;;;;;;;96.80;40.43;;;;;;;1.14;81.94;99034.89;252923;1104;115729;-65
2021/03/15 19:14:56;;;;;;;91.08;41.33;;;;;;;1.20;83.74;99042.00;253349;1105;115574;-64
2021/03/15 19:19:59;;;;;;;97.40;42.95;;;;;;;1.31;83.82;99039.64;253703;1105;116303;-65
2021/03/15 19:25:02;;;;;;;86.72;39.18;;;;;;;1.48;83.95;99044.61;253264;1105;116880;-65
2021/03/15 19:30:06;;;;;;;101.38;42.00;;;;;;;1.73;82.21;99044.94;252151;1105;116163;-65
2021/03/15 19:35:09;;;;;;;35.13;16.15;;;;;;;1.89;80.78;99073.51;252856;1104;116358;-65
2021/03/15 19:40:13;;;;;;;65.57;35.10;;;;;;;2.07;80.41;99080.89;253595;1104;115565;-64
2021/03/15 19:45:16;;;;;;;50.33;23.98;;;;;;;2.22;80.98;99082.35;251346;1105;116264;-65
2021/03/15 19:50:19;;;;;;;59.93;27.98;;;;;;;2.36;82.46;99078.77;254785;1105;117299;-65
2021/03/15 19:55:22;;;;;;;61.85;31.17;;;;;;;2.55;81.25;99082.45;254610;1104;117737;-65
2021/03/15 20:00:26;;;;;;;59.27;30.50;;;;;;;2.67;80.31;99078.23;254494;1105;116613;-65
2021/03/15 20:05:28;;;;;;;33.05;17.67;;;;;;;2.71;81.08;99073.39;255038;1104;115116;-65
2021/03/15 20:10:31;;;;;;;43.23;18.62;;;;;;;2.72;81.36;99067.12;255150;1105;116184;-65
2021/03/15 20:15:33;;;;;;;30.72;18.95;;;;;;;2.75;81.36;99068.55;254668;1104;124269;-65
2021/03/15 20:20:36;;;;;;;36.68;21.52;;;;;;;2.86;81.96;99076.63;254710;1104;117342;-65
2021/03/15 20:25:40;;;;;;;40.45;22.05;;;;;;;2.97;81.26;99078.68;254883;1104;115738;-65
2021/03/15 20:30:44;;;;;;;36.10;21.03;;;;;;;2.99;81.03;99079.29;253012;1105;116851;-64
2021/03/15 20:35:50;;;;;;;29.45;20.62;;;;;;;2.96;81.01;99079.69;254318;1104;115052;-65
2021/03/15 20:40:56;;;;;;;31.62;20.90;;;;;;;2.99;82.70;99083.75;254600;1105;115476;-65
2021/03/15 20:45:58;;;;;;;29.65;18.90;;;;;;;3.04;81.35;99090.03;253718;1104;115133;-65
2021/03/15 20:51:01;;;;;;;30.85;19.77;;;;;;;3.09;81.42;99088.59;253577;1105;116589;-65
2021/03/15 20:56:06;;;;;;;39.13;22.35;;;;;;;3.11;81.13;99084.75;252648;1103;116437;-65
2021/03/15 21:01:09;;;;;;;55.50;30.25;;;;;;;3.18;81.44;99090.83;252761;1105;116150;-66
2021/03/15 21:06:12;;;;;;;45.90;25.97;;;;;;;3.21;80.80;99085.16;253843;1105;116162;-65
2021/03/15 21:11:16;;;;;;;44.23;31.82;;;;;;;3.20;81.46;99095.89;252880;1104;116326;-65
2021/03/15 21:16:19;;;;;;;44.63;28.50;;;;;;;3.11;81.46;99087.37;253372;1105;116843;-65
2021/03/15 21:21:25;;;;;;;40.80;24.57;;;;;;;3.06;81.97;99086.39;254255;1105;116067;-65
2021/03/15 21:26:28;;;;;;;35.83;24.18;;;;;;;3.01;82.04;99087.80;254552;1105;116070;-65
2021/03/15 21:31:31;;;;;;;29.00;18.15;;;;;;;2.96;82.03;99082.32;253754;1104;116770;-65
2021/03/15 21:36:35;;;;;;;32.50;20.70;;;;;;;2.91;82.29;99078.67;254480;1104;116372;-66
2021/03/15 21:41:40;;;;;;;24.20;15.93;;;;;;;2.85;82.69;99082.91;253379;1105;139725;-64
2021/03/15 21:46:43;;;;;;;32.70;21.48;;;;;;;2.87;83.19;99082.70;252228;1105;115268;-65
2021/03/15 21:51:47;;;;;;;44.15;22.22;;;;;;;2.90;83.67;99077.86;253631;1105;115412;-65
2021/03/15 21:56:50;;;;;;;58.17;28.98;;;;;;;2.91;82.73;99076.84;253188;1103;115476;-66
2021/03/15 22:01:54;;;;;;;46.55;24.98;;;;;;;2.88;83.00;99069.34;254640;1105;115013;-65
2021/03/15 22:06:58;;;;;;;53.20;27.70;;;;;;;2.95;82.22;99077.26;254236;1104;115635;-66
2021/03/15 22:12:04;;;;;;;41.26;25.36;;;;;;;2.96;82.53;99074.42;254573;1104;115134;-65
2021/03/15 22:17:09;;;;;;;43.42;21.97;;;;;;;2.87;83.15;99085.34;254614;1104;114951;-65
2021/03/15 22:22:13;;;;;;;38.02;17.50;;;;;;;2.76;83.03;99081.47;254279;1105;115424;-65
2021/03/15 22:27:17;;;;;;;50.58;27.13;;;;;;;2.72;83.70;99080.28;254739;1105;115115;-66
2021/03/15 22:32:21;;;;;;;54.27;27.00;;;;;;;2.76;83.18;99075.39;254889;1104;115542;-66
2021/03/15 22:37:25;;;;;;;47.98;28.62;;;;;;;2.85;84.49;99079.47;253796;1105;115600;-66
2021/03/15 22:42:28;;;;;;;50.43;25.97;;;;;;;2.83;83.59;99077.03;254259;1105;115348;-66
2021/03/15 22:47:32;;;;;;;48.47;28.17;;;;;;;2.80;84.24;99069.53;252638;1105;114590;-65
2021/03/15 22:52:36;;;;;;;58.45;30.65;;;;;;;2.87;82.54;99070.36;253807;1104;114629;-65
2021/03/15 22:57:41;;;;;;;54.05;28.10;;;;;;;2.95;82.36;99072.80;253074;1105;115018;-67
2021/03/15 23:02:45;;;;;;;49.53;30.77;;;;;;;3.00;82.46;99072.20;251596;1105;116755;-66
2021/03/15 23:07:49;;;;;;;52.00;31.80;;;;;;;2.98;83.38;99080.30;253301;1105;115498;-66
2021/03/15 23:12:53;;;;;;;52.73;32.78;;;;;;;2.94;82.48;99080.91;252755;1105;115683;-65
2021/03/15 23:17:58;;;;;;;57.35;32.20;;;;;;;2.89;83.16;99084.13;251471;1105;115259;-66